Terminal Aerodrome Forecast
Issued by NWS Dallas/Fort Worth, TX

Home | Current Version | Previous Version | Text Only | Print | Product List | Glossary On
Versions: 1 2 3 4 5 6 7 8 9 10 11 12 13 14 15 16 17 18 19 20
000
FTUS44 KFWD 260500
TAFACT
TAF
KACT 260520Z 2606/2706 17015KT P6SM SCT035 BKN250
     FM260800 16011KT P6SM OVC013
      TEMPO 2613/2616 5SM BR OVC006
     FM261700 16014KT P6SM OVC018
     FM270200 16006KT 4SM BR OVC007=

USA.gov is the U.S. government's official web portal to all federal, state and local government web resources and services.